Time;durP1;ratioP1;P1;durP2;ratioP2;P2;SDS_P1;SDS_P2;PMS_P1;PMS_P2;Temp;Humidity;BMP_temperature;BMP_pressure;BME280_temperature;BME280_humidity;BME280_pressure;Samples;Min_cycle;Max_cycle;Signal;HPM_P1;HPM_P2
2021/07/22 00:01:52;;;;;;;12.10;3.20;;;;;;;;;;5033378;28;20060;-61
2021/07/22 00:04:18;;;;;;;8.98;3.17;;;;;;;;;;5034166;28;20060;-61
2021/07/22 00:06:43;;;;;;;4.25;2.80;;;;;;;;;;5038091;28;20044;-61
2021/07/22 00:09:08;;;;;;;7.88;2.80;;;;;;;;;;5033481;28;20041;-61
2021/07/22 00:11:34;;;;;;;5.70;3.35;;;;;;;;;;5038887;28;20032;-61
2021/07/22 00:13:59;;;;;;;6.72;3.17;;;;;;;;;;5031609;28;20091;-61
2021/07/22 00:16:25;;;;;;;8.70;3.10;;;;;;;;;;5032886;28;20053;-61
2021/07/22 00:18:50;;;;;;;7.63;3.13;;;;;;;;;;5046642;28;20039;-61
2021/07/22 00:21:16;;;;;;;9.00;2.90;;;;;;;;;;5037115;28;20377;-61
2021/07/22 00:23:41;;;;;;;6.20;2.88;;;;;;;;;;5039384;28;20052;-61
2021/07/22 00:26:07;;;;;;;4.47;2.80;;;;;;;;;;5031048;28;20022;-61
2021/07/22 00:28:33;;;;;;;7.22;2.85;;;;;;;;;;5038631;28;20029;-61
2021/07/22 00:30:59;;;;;;;6.70;3.10;;;;;;;;;;5049155;28;20338;-61
2021/07/22 00:33:24;;;;;;;6.47;3.15;;;;;;;;;;5035940;28;20400;-61
2021/07/22 00:35:50;;;;;;;9.23;2.80;;;;;;;;;;5036450;28;20069;-61
2021/07/22 00:38:15;;;;;;;8.63;3.10;;;;;;;;;;5039075;28;20033;-61
2021/07/22 00:40:47;;;;;;;9.02;3.53;;;;;;;;;;5036802;28;20033;-61
2021/07/22 00:43:13;;;;;;;7.53;2.80;;;;;;;;;;5030714;28;20056;-61
2021/07/22 00:45:38;;;;;;;8.55;3.10;;;;;;;;;;5032673;28;20481;-61
2021/07/22 00:48:04;;;;;;;9.05;3.28;;;;;;;;;;5033249;28;20025;-61
2021/07/22 00:50:31;;;;;;;9.50;3.25;;;;;;;;;;5032211;28;20024;-61
2021/07/22 00:52:57;;;;;;;5.57;3.03;;;;;;;;;;5032908;28;20079;-61
2021/07/22 00:55:29;;;;;;;7.28;3.15;;;;;;;;;;5036103;28;20037;-61
2021/07/22 00:57:55;;;;;;;7.15;3.45;;;;;;;;;;5041533;28;20027;-61
2021/07/22 01:00:20;;;;;;;11.18;3.92;;;;;;;;;;5040919;28;20135;-61
2021/07/22 01:02:46;;;;;;;6.90;3.90;;;;;;;;;;5044147;28;20043;-61
2021/07/22 01:05:12;;;;;;;9.70;3.92;;;;;;;;;;5041184;28;20033;-61
2021/07/22 01:07:37;;;;;;;12.18;3.92;;;;;;;;;;5043491;28;20032;-61
2021/07/22 01:10:05;;;;;;;7.60;3.90;;;;;;;;;;5046532;28;20034;-61
2021/07/22 01:12:30;;;;;;;11.80;3.80;;;;;;;;;;5044528;28;20091;-61
2021/07/22 01:14:56;;;;;;;9.85;3.90;;;;;;;;;;5038059;28;20041;-61
2021/07/22 01:17:50;;;;;;;7.18;3.70;;;;;;;;;;5037136;28;20032;-61
2021/07/22 01:20:19;;;;;;;11.23;3.60;;;;;;;;;;5045199;28;20112;-64
2021/07/22 01:22:45;;;;;;;10.23;3.88;;;;;;;;;;5042500;28;20142;-61
2021/07/22 01:25:12;;;;;;;11.52;4.03;;;;;;;;;;5040264;28;20068;-61
2021/07/22 01:27:38;;;;;;;5.70;3.65;;;;;;;;;;5036060;28;21418;-60
2021/07/22 01:33:25;;;;;;;6.97;3.25;;;;;;;;;;5002823;28;20098;-61
2021/07/22 01:35:51;;;;;;;7.25;3.92;;;;;;;;;;5042866;28;20484;-61
2021/07/22 01:38:17;;;;;;;7.30;3.60;;;;;;;;;;5038547;28;20771;-61
2021/07/22 01:40:42;;;;;;;10.60;4.00;;;;;;;;;;5038184;28;20013;-60
2021/07/22 01:43:07;;;;;;;11.70;3.28;;;;;;;;;;5042093;28;20227;-60
2021/07/22 01:45:33;;;;;;;8.80;3.30;;;;;;;;;;5046594;28;20028;-61
2021/07/22 01:47:59;;;;;;;4.55;3.15;;;;;;;;;;5041205;28;20121;-60
2021/07/22 01:50:24;;;;;;;4.45;3.35;;;;;;;;;;5040252;28;20052;-60
2021/07/22 01:52:50;;;;;;;8.35;3.45;;;;;;;;;;5036706;28;20096;-60
2021/07/22 01:55:15;;;;;;;8.27;3.33;;;;;;;;;;5035875;28;20443;-60
2021/07/22 01:57:41;;;;;;;6.15;3.20;;;;;;;;;;5036429;28;20042;-60
2021/07/22 02:00:06;;;;;;;5.60;2.92;;;;;;;;;;5042990;28;20056;-60
2021/07/22 02:02:32;;;;;;;7.60;3.38;;;;;;;;;;5044253;28;20033;-60
2021/07/22 02:04:59;;;;;;;8.07;3.47;;;;;;;;;;5039455;28;20063;-60
2021/07/22 02:07:25;;;;;;;4.90;3.03;;;;;;;;;;5040627;28;20025;-60
2021/07/22 02:09:51;;;;;;;7.28;3.10;;;;;;;;;;5033942;28;20044;-60
2021/07/22 02:12:16;;;;;;;6.10;3.20;;;;;;;;;;5038116;28;20033;-60
2021/07/22 02:14:42;;;;;;;7.28;3.30;;;;;;;;;;5039170;28;20049;-61
2021/07/22 02:17:08;;;;;;;9.63;3.30;;;;;;;;;;5043043;28;20385;-60
2021/07/22 02:19:34;;;;;;;8.73;3.03;;;;;;;;;;5041990;28;20033;-61
2021/07/22 02:21:59;;;;;;;10.23;3.33;;;;;;;;;;5051804;28;20029;-60
2021/07/22 02:24:25;;;;;;;5.13;3.13;;;;;;;;;;5042785;28;20529;-60
2021/07/22 02:26:50;;;;;;;5.15;3.00;;;;;;;;;;5048630;28;20499;-61
2021/07/22 02:29:15;;;;;;;5.32;2.83;;;;;;;;;;5046011;28;20060;-61
2021/07/22 02:31:41;;;;;;;7.43;3.13;;;;;;;;;;5038521;28;20061;-62
2021/07/22 02:34:06;;;;;;;4.20;2.70;;;;;;;;;;5039956;28;20029;-61
2021/07/22 02:36:32;;;;;;;6.32;3.22;;;;;;;;;;5041561;28;20642;-60
2021/07/22 02:38:58;;;;;;;8.73;3.05;;;;;;;;;;5035356;28;20448;-61
2021/07/22 02:41:24;;;;;;;5.28;2.88;;;;;;;;;;5043547;28;20187;-61
2021/07/22 02:43:49;;;;;;;8.00;3.03;;;;;;;;;;5039693;28;20025;-61
2021/07/22 02:46:15;;;;;;;8.23;2.90;;;;;;;;;;5041323;28;20073;-60
2021/07/22 02:48:40;;;;;;;7.75;3.00;;;;;;;;;;5038723;28;20037;-62
2021/07/22 02:51:07;;;;;;;7.70;2.83;;;;;;;;;;5042441;28;20029;-61
2021/07/22 02:53:36;;;;;;;6.68;2.80;;;;;;;;;;5037044;28;20538;-60
2021/07/22 02:56:03;;;;;;;7.38;2.90;;;;;;;;;;5034049;28;20467;-61
2021/07/22 02:58:29;;;;;;;8.65;2.70;;;;;;;;;;5037211;28;20040;-61
2021/07/22 03:00:55;;;;;;;3.83;3.10;;;;;;;;;;5040955;28;20033;-61
2021/07/22 03:03:21;;;;;;;5.78;3.00;;;;;;;;;;5042407;28;20360;-60
2021/07/22 03:05:47;;;;;;;5.15;3.05;;;;;;;;;;5040063;28;20503;-61
2021/07/22 03:08:12;;;;;;;5.50;2.75;;;;;;;;;;5040643;28;20116;-61
2021/07/22 03:10:38;;;;;;;4.22;2.88;;;;;;;;;;5037937;28;20040;-61
2021/07/22 03:13:03;;;;;;;8.65;3.55;;;;;;;;;;5038803;28;20038;-61
2021/07/22 03:15:30;;;;;;;7.22;3.20;;;;;;;;;;5038761;28;20464;-61
2021/07/22 03:17:56;;;;;;;8.88;3.25;;;;;;;;;;5035679;28;20035;-61
2021/07/22 03:20:22;;;;;;;6.65;3.00;;;;;;;;;;5038242;28;20504;-60
2021/07/22 03:22:47;;;;;;;6.18;3.05;;;;;;;;;;5035240;28;20033;-60
2021/07/22 03:25:13;;;;;;;11.52;3.47;;;;;;;;;;5043460;28;20074;-61
2021/07/22 03:27:38;;;;;;;6.82;3.28;;;;;;;;;;5041793;28;20024;-62
2021/07/22 03:30:05;;;;;;;6.45;3.38;;;;;;;;;;5040991;28;20159;-62
2021/07/22 03:32:30;;;;;;;6.30;2.90;;;;;;;;;;5039218;28;20758;-62
2021/07/22 03:34:56;;;;;;;7.75;3.97;;;;;;;;;;5040194;28;20175;-61
2021/07/22 03:37:21;;;;;;;5.75;3.03;;;;;;;;;;5040043;28;20035;-61
2021/07/22 03:39:47;;;;;;;4.78;3.20;;;;;;;;;;5039672;28;20041;-62
2021/07/22 03:42:12;;;;;;;9.00;3.53;;;;;;;;;;5037012;28;20043;-61
2021/07/22 03:44:38;;;;;;;6.40;3.13;;;;;;;;;;5043781;28;20024;-60
2021/07/22 03:47:04;;;;;;;6.50;2.92;;;;;;;;;;5033731;28;20032;-60
2021/07/22 03:49:30;;;;;;;6.78;3.22;;;;;;;;;;5042481;28;20036;-60
2021/07/22 03:51:57;;;;;;;10.98;3.25;;;;;;;;;;5036360;28;20085;-61
2021/07/22 03:54:23;;;;;;;6.50;3.25;;;;;;;;;;5038751;28;20305;-60
2021/07/22 03:56:48;;;;;;;6.63;3.08;;;;;;;;;;5039433;28;20112;-61
2021/07/22 03:59:15;;;;;;;8.27;3.05;;;;;;;;;;5033228;28;20083;-61
2021/07/22 04:01:41;;;;;;;9.30;3.10;;;;;;;;;;5036704;28;20029;-60
2021/07/22 04:04:06;;;;;;;6.20;3.15;;;;;;;;;;5041559;28;20047;-61
2021/07/22 04:06:36;;;;;;;7.32;3.33;;;;;;;;;;5040023;28;20484;-61
2021/07/22 04:09:02;;;;;;;5.88;2.80;;;;;;;;;;5041020;28;20033;-61
2021/07/22 04:11:28;;;;;;;8.00;3.33;;;;;;;;;;5036364;28;20105;-60
2021/07/22 04:13:53;;;;;;;7.95;3.05;;;;;;;;;;5043724;28;20056;-61
2021/07/22 04:16:19;;;;;;;6.28;3.25;;;;;;;;;;5038071;28;20122;-60
2021/07/22 04:18:44;;;;;;;12.30;3.05;;;;;;;;;;5041186;28;20039;-60
2021/07/22 04:21:09;;;;;;;9.95;3.78;;;;;;;;;;5039935;28;20037;-61
2021/07/22 04:23:35;;;;;;;5.97;3.15;;;;;;;;;;5037781;28;20032;-61
2021/07/22 04:26:00;;;;;;;6.45;3.30;;;;;;;;;;5038904;28;20060;-61
2021/07/22 04:28:26;;;;;;;6.60;3.20;;;;;;;;;;5039501;28;20029;-61
2021/07/22 04:30:51;;;;;;;6.13;3.10;;;;;;;;;;5036896;28;20045;-60
2021/07/22 04:33:17;;;;;;;5.88;3.10;;;;;;;;;;5040523;28;20037;-60
2021/07/22 04:35:43;;;;;;;6.88;3.45;;;;;;;;;;5039523;28;20065;-60
2021/07/22 04:38:08;;;;;;;6.88;3.28;;;;;;;;;;5039539;28;20064;-60
2021/07/22 04:40:33;;;;;;;5.63;3.20;;;;;;;;;;5041949;28;20029;-61
2021/07/22 04:43:02;;;;;;;8.18;3.15;;;;;;;;;;5048507;28;20488;-62
2021/07/22 04:45:28;;;;;;;4.57;3.00;;;;;;;;;;5039890;28;20040;-62
2021/07/22 04:47:53;;;;;;;10.38;3.72;;;;;;;;;;5040015;28;20041;-62
2021/07/22 04:50:19;;;;;;;8.02;4.20;;;;;;;;;;5037097;28;20026;-61
2021/07/22 04:52:45;;;;;;;5.32;2.78;;;;;;;;;;5042755;28;20033;-61
2021/07/22 04:55:10;;;;;;;7.07;2.78;;;;;;;;;;5035642;28;20041;-61
2021/07/22 04:57:36;;;;;;;5.20;3.20;;;;;;;;;;5038591;28;20377;-61
2021/07/22 05:00:03;;;;;;;7.95;3.30;;;;;;;;;;5037555;28;20192;-62
2021/07/22 05:02:28;;;;;;;5.88;3.10;;;;;;;;;;5041871;28;20017;-61
2021/07/22 05:04:54;;;;;;;6.72;3.17;;;;;;;;;;5043774;28;20032;-62
2021/07/22 05:07:19;;;;;;;6.20;3.40;;;;;;;;;;5043278;28;20040;-61
2021/07/22 05:09:45;;;;;;;4.85;2.88;;;;;;;;;;5044605;28;20040;-61
2021/07/22 05:12:10;;;;;;;6.10;3.15;;;;;;;;;;5034242;28;20048;-62
2021/07/22 05:14:37;;;;;;;5.55;3.35;;;;;;;;;;5040960;28;20045;-61
2021/07/22 05:17:03;;;;;;;7.15;3.10;;;;;;;;;;5042357;28;20063;-61
2021/07/22 05:19:28;;;;;;;7.25;3.30;;;;;;;;;;5040604;28;20503;-61
2021/07/22 05:21:54;;;;;;;6.38;3.17;;;;;;;;;;5038749;28;20403;-61
2021/07/22 05:24:19;;;;;;;5.03;3.33;;;;;;;;;;5037549;28;20132;-60
2021/07/22 05:26:45;;;;;;;7.22;3.50;;;;;;;;;;5039495;28;20043;-61
2021/07/22 05:29:11;;;;;;;7.47;3.78;;;;;;;;;;5044979;28;20029;-61
2021/07/22 05:31:44;;;;;;;8.77;3.92;;;;;;;;;;5039998;28;20570;-62
2021/07/22 05:34:10;;;;;;;6.82;3.40;;;;;;;;;;5043123;28;20458;-61
2021/07/22 05:36:35;;;;;;;10.73;3.88;;;;;;;;;;5042430;28;20442;-61
2021/07/22 05:39:02;;;;;;;7.78;3.63;;;;;;;;;;5041072;28;20033;-61
2021/07/22 05:41:27;;;;;;;6.68;3.45;;;;;;;;;;5044358;28;20066;-61
2021/07/22 05:43:53;;;;;;;6.97;3.35;;;;;;;;;;5045160;28;20598;-61
2021/07/22 05:46:19;;;;;;;7.50;2.97;;;;;;;;;;5041897;28;20033;-60
2021/07/22 05:48:46;;;;;;;8.13;4.00;;;;;;;;;;5035700;28;20040;-61
2021/07/22 05:51:12;;;;;;;13.45;4.75;;;;;;;;;;5041832;28;20064;-61
2021/07/22 05:53:37;;;;;;;6.75;4.00;;;;;;;;;;5040039;28;20464;-61
2021/07/22 05:56:03;;;;;;;6.95;4.32;;;;;;;;;;5042699;28;20036;-61
2021/07/22 05:58:28;;;;;;;6.30;3.85;;;;;;;;;;5041166;28;20079;-61
2021/07/22 06:00:54;;;;;;;8.30;4.72;;;;;;;;;;5042594;28;20119;-60
2021/07/22 06:03:19;;;;;;;8.65;4.82;;;;;;;;;;5039514;28;20056;-61
2021/07/22 06:05:45;;;;;;;8.43;4.50;;;;;;;;;;5041016;28;20536;-61
2021/07/22 06:08:10;;;;;;;10.18;5.05;;;;;;;;;;5038030;28;20033;-61
2021/07/22 06:10:37;;;;;;;8.88;4.60;;;;;;;;;;5043027;28;20025;-61
2021/07/22 06:13:03;;;;;;;9.02;4.95;;;;;;;;;;5035795;28;20025;-63
2021/07/22 06:15:28;;;;;;;10.10;4.75;;;;;;;;;;5038198;28;20535;-62
2021/07/22 06:17:54;;;;;;;7.53;4.22;;;;;;;;;;5043992;28;20195;-61
2021/07/22 06:20:19;;;;;;;10.88;4.43;;;;;;;;;;5035344;28;20248;-62
2021/07/22 06:22:45;;;;;;;12.00;4.78;;;;;;;;;;5039308;28;20554;-62
2021/07/22 06:25:13;;;;;;;11.52;4.90;;;;;;;;;;5036926;28;20399;-61
2021/07/22 06:27:38;;;;;;;9.25;4.00;;;;;;;;;;5033483;28;20492;-63
2021/07/22 06:30:04;;;;;;;10.98;4.47;;;;;;;;;;5042130;28;20037;-62
2021/07/22 06:32:30;;;;;;;9.02;4.28;;;;;;;;;;5039363;28;20495;-63
2021/07/22 06:34:55;;;;;;;14.07;4.30;;;;;;;;;;5039377;28;20036;-61
2021/07/22 06:37:21;;;;;;;7.78;4.40;;;;;;;;;;5042778;28;20037;-63
2021/07/22 06:39:46;;;;;;;9.95;4.35;;;;;;;;;;5039823;28;20604;-62
2021/07/22 06:42:12;;;;;;;11.55;4.35;;;;;;;;;;5014338;28;20037;-62
2021/07/22 06:44:37;;;;;;;8.65;4.30;;;;;;;;;;5033333;28;20031;-64
2021/07/22 06:47:03;;;;;;;8.70;4.10;;;;;;;;;;5043392;28;20033;-62
2021/07/22 06:49:28;;;;;;;6.57;4.43;;;;;;;;;;5036989;28;20071;-63
2021/07/22 06:51:54;;;;;;;9.38;3.63;;;;;;;;;;5047081;28;20079;-62
2021/07/22 06:54:21;;;;;;;10.82;3.97;;;;;;;;;;5045627;28;20028;-63
2021/07/22 06:56:46;;;;;;;10.10;3.55;;;;;;;;;;5034287;28;20035;-62
2021/07/22 06:59:12;;;;;;;5.72;3.33;;;;;;;;;;5040369;28;20104;-61
2021/07/22 07:01:37;;;;;;;8.65;3.80;;;;;;;;;;5033722;28;20175;-63
2021/07/22 07:04:03;;;;;;;5.93;3.47;;;;;;;;;;5039505;28;20041;-62
2021/07/22 07:06:30;;;;;;;7.78;3.85;;;;;;;;;;5039400;28;20033;-62
2021/07/22 07:08:55;;;;;;;5.50;3.28;;;;;;;;;;5039017;28;20321;-62
2021/07/22 07:11:21;;;;;;;5.82;3.60;;;;;;;;;;5039676;28;20095;-61
2021/07/22 07:13:46;;;;;;;9.82;3.22;;;;;;;;;;5035685;28;20029;-62
2021/07/22 07:16:12;;;;;;;5.05;3.08;;;;;;;;;;5043982;28;20060;-61
2021/07/22 07:18:37;;;;;;;10.55;3.38;;;;;;;;;;5044672;28;20036;-62
2021/07/22 07:21:04;;;;;;;7.88;3.05;;;;;;;;;;5032297;28;20025;-62
2021/07/22 07:23:30;;;;;;;12.32;3.63;;;;;;;;;;5041746;28;20029;-61
2021/07/22 07:25:56;;;;;;;7.88;3.75;;;;;;;;;;5038640;28;20060;-61
2021/07/22 07:28:21;;;;;;;9.73;3.30;;;;;;;;;;5038770;28;20060;-62
2021/07/22 07:30:47;;;;;;;9.98;3.67;;;;;;;;;;5034650;28;20060;-61
2021/07/22 07:33:12;;;;;;;7.15;3.60;;;;;;;;;;5036160;28;20029;-62
2021/07/22 07:35:39;;;;;;;6.05;3.20;;;;;;;;;;5032428;28;20021;-62
2021/07/22 07:38:05;;;;;;;7.22;3.75;;;;;;;;;;5036867;28;20064;-62
2021/07/22 07:40:30;;;;;;;11.23;4.43;;;;;;;;;;5036496;28;20504;-62
2021/07/22 07:42:56;;;;;;;7.10;4.07;;;;;;;;;;5036780;28;20025;-62
2021/07/22 07:45:21;;;;;;;6.55;3.58;;;;;;;;;;5038644;28;20392;-62
2021/07/22 07:47:47;;;;;;;8.13;4.03;;;;;;;;;;5032008;28;20029;-63
2021/07/22 07:50:13;;;;;;;7.43;3.58;;;;;;;;;;5043035;28;20043;-62
2021/07/22 07:52:39;;;;;;;7.97;3.95;;;;;;;;;;5042598;28;20112;-62
2021/07/22 07:55:06;;;;;;;14.50;4.20;;;;;;;;;;5048050;28;20116;-62
2021/07/22 07:57:32;;;;;;;7.07;3.67;;;;;;;;;;5035575;28;20033;-62
2021/07/22 07:59:58;;;;;;;9.55;4.07;;;;;;;;;;5040296;28;20120;-62
2021/07/22 08:02:23;;;;;;;14.88;4.18;;;;;;;;;;5045091;28;20048;-62
2021/07/22 08:04:49;;;;;;;9.93;4.63;;;;;;;;;;5042069;28;20032;-63
2021/07/22 08:07:14;;;;;;;11.77;4.65;;;;;;;;;;5033941;28;20124;-62
2021/07/22 08:09:40;;;;;;;8.55;4.68;;;;;;;;;;5044996;28;20029;-62
2021/07/22 08:12:06;;;;;;;12.65;4.93;;;;;;;;;;5034041;28;20033;-62
2021/07/22 08:14:36;;;;;;;8.07;5.00;;;;;;;;;;5033407;28;20037;-62
2021/07/22 08:17:05;;;;;;;7.10;4.63;;;;;;;;;;5036930;28;20045;-62
2021/07/22 08:19:31;;;;;;;8.20;4.72;;;;;;;;;;5031024;28;20055;-62
2021/07/22 08:21:56;;;;;;;8.30;4.78;;;;;;;;;;5035222;28;20539;-62
2021/07/22 08:24:22;;;;;;;10.57;5.10;;;;;;;;;;5044063;28;20466;-62
2021/07/22 08:26:47;;;;;;;12.88;5.88;;;;;;;;;;5038678;28;20049;-61
2021/07/22 08:29:12;;;;;;;17.63;6.25;;;;;;;;;;5036784;28;20393;-64
2021/07/22 08:31:38;;;;;;;15.85;6.60;;;;;;;;;;5035492;28;20029;-62
2021/07/22 08:34:03;;;;;;;19.83;7.55;;;;;;;;;;5042199;28;20068;-62
2021/07/22 08:36:29;;;;;;;14.85;6.53;;;;;;;;;;5038731;28;20095;-62
2021/07/22 08:38:54;;;;;;;9.65;5.85;;;;;;;;;;5036916;28;20412;-62
2021/07/22 08:41:20;;;;;;;12.30;5.05;;;;;;;;;;5041534;28;20025;-62
2021/07/22 08:43:50;;;;;;;14.82;5.72;;;;;;;;;;5039540;28;20052;-61
2021/07/22 08:46:16;;;;;;;13.45;6.20;;;;;;;;;;5034902;28;20025;-61
2021/07/22 08:48:43;;;;;;;10.27;5.72;;;;;;;;;;5037159;28;20547;-61
2021/07/22 08:51:08;;;;;;;17.08;6.18;;;;;;;;;;5039128;28;20037;-61
2021/07/22 08:53:34;;;;;;;10.65;5.43;;;;;;;;;;5035471;28;20083;-61
2021/07/22 08:56:02;;;;;;;14.98;7.20;;;;;;;;;;5037911;28;20087;-61
2021/07/22 08:58:28;;;;;;;19.13;7.68;;;;;;;;;;5029826;28;20029;-61
2021/07/22 09:00:55;;;;;;;15.20;7.68;;;;;;;;;;5040645;28;20423;-60
2021/07/22 09:03:21;;;;;;;20.48;8.02;;;;;;;;;;5040727;28;20511;-61
2021/07/22 09:05:47;;;;;;;12.00;7.15;;;;;;;;;;5037504;28;20116;-61
2021/07/22 09:08:13;;;;;;;15.45;8.32;;;;;;;;;;5047622;28;20033;-61
2021/07/22 09:10:39;;;;;;;16.42;7.53;;;;;;;;;;5044748;28;20021;-61
2021/07/22 09:13:04;;;;;;;15.35;8.35;;;;;;;;;;5043246;28;20502;-63
2021/07/22 09:15:33;;;;;;;16.55;8.38;;;;;;;;;;5038575;28;20048;-62
2021/07/22 09:17:58;;;;;;;15.63;7.95;;;;;;;;;;5040932;28;20037;-62
2021/07/22 09:20:31;;;;;;;16.33;8.00;;;;;;;;;;5043473;28;20033;-62
2021/07/22 09:22:58;;;;;;;16.27;7.47;;;;;;;;;;5047933;28;20040;-63
2021/07/22 09:25:39;;;;;;;13.07;7.20;;;;;;;;;;5048703;28;20112;-63
2021/07/22 09:28:05;;;;;;;11.07;6.10;;;;;;;;;;5040486;28;20020;-63
2021/07/22 09:30:30;;;;;;;12.23;6.65;;;;;;;;;;5045599;28;20035;-63
2021/07/22 09:32:56;;;;;;;15.07;7.03;;;;;;;;;;5044867;28;20107;-63
2021/07/22 09:35:22;;;;;;;20.15;6.85;;;;;;;;;;5046741;28;20134;-63
2021/07/22 09:37:55;;;;;;;16.27;8.43;;;;;;;;;;5043746;28;20042;-63
2021/07/22 09:40:26;;;;;;;20.33;7.80;;;;;;;;;;5048662;28;20060;-62
2021/07/22 09:42:54;;;;;;;18.17;7.88;;;;;;;;;;5042998;28;20036;-62
2021/07/22 09:45:30;;;;;;;14.80;7.35;;;;;;;;;;5042641;28;20167;-62
2021/07/22 09:48:06;;;;;;;18.75;7.82;;;;;;;;;;5040039;28;20048;-63
2021/07/22 09:50:39;;;;;;;16.55;8.40;;;;;;;;;;5045151;28;20040;-63
2021/07/22 09:53:07;;;;;;;20.92;8.30;;;;;;;;;;5040301;28;20045;-64
2021/07/22 09:55:34;;;;;;;13.02;8.18;;;;;;;;;;5046521;28;20040;-63
2021/07/22 09:58:07;;;;;;;18.77;8.60;;;;;;;;;;5044557;28;20164;-63
2021/07/22 10:00:35;;;;;;;12.80;7.90;;;;;;;;;;5044837;28;20140;-62
2021/07/22 10:03:02;;;;;;;15.13;8.02;;;;;;;;;;5039522;28;20108;-62
2021/07/22 10:05:31;;;;;;;15.13;8.52;;;;;;;;;;5047411;28;20500;-62
2021/07/22 10:07:58;;;;;;;15.75;9.52;;;;;;;;;;5043540;28;20071;-63
2021/07/22 10:10:28;;;;;;;14.52;6.93;;;;;;;;;;5045092;28;20037;-63
2021/07/22 10:12:56;;;;;;;14.55;7.03;;;;;;;;;;5037305;28;20484;-63
2021/07/22 10:15:36;;;;;;;14.35;8.27;;;;;;;;;;5044739;28;20040;-63
2021/07/22 10:18:05;;;;;;;16.05;8.85;;;;;;;;;;5041517;28;20028;-63
2021/07/22 10:20:33;;;;;;;15.23;7.90;;;;;;;;;;5047098;28;20098;-63
2021/07/22 10:23:01;;;;;;;11.98;6.88;;;;;;;;;;5036575;28;20041;-63
2021/07/22 10:25:28;;;;;;;15.85;7.88;;;;;;;;;;5043360;28;20033;-62
2021/07/22 10:27:55;;;;;;;19.90;8.60;;;;;;;;;;5044226;28;20029;-63
2021/07/22 10:30:22;;;;;;;17.33;7.47;;;;;;;;;;5047950;28;20480;-63
2021/07/22 10:32:51;;;;;;;15.77;7.90;;;;;;;;;;5041772;28;20385;-63
2021/07/22 10:35:22;;;;;;;12.45;7.88;;;;;;;;;;5046737;28;20028;-63
2021/07/22 10:38:10;;;;;;;16.50;8.25;;;;;;;;;;5042182;28;20028;-63
2021/07/22 10:40:50;;;;;;;14.60;8.10;;;;;;;;;;5039516;28;20022;-63
2021/07/22 10:43:34;;;;;;;15.75;7.72;;;;;;;;;;5038045;28;20060;-63
2021/07/22 10:46:04;;;;;;;16.02;7.93;;;;;;;;;;5041833;28;20033;-62
2021/07/22 10:48:29;;;;;;;12.13;7.63;;;;;;;;;;5039968;28;20517;-63
2021/07/22 10:50:55;;;;;;;15.63;8.93;;;;;;;;;;5033767;28;20041;-62
2021/07/22 10:53:44;;;;;;;19.70;8.80;;;;;;;;;;5041140;28;20112;-63
2021/07/22 10:56:15;;;;;;;13.70;8.35;;;;;;;;;;5037670;28;20033;-62
2021/07/22 10:58:40;;;;;;;15.50;8.03;;;;;;;;;;5040399;28;20091;-63
2021/07/22 11:01:07;;;;;;;14.10;8.38;;;;;;;;;;5043409;28;20116;-63
2021/07/22 11:03:32;;;;;;;12.90;7.90;;;;;;;;;;5043665;28;20032;-63
2021/07/22 11:05:59;;;;;;;11.52;7.85;;;;;;;;;;5040289;28;20025;-62
2021/07/22 11:08:25;;;;;;;12.00;7.45;;;;;;;;;;5039457;28;20021;-62
2021/07/22 11:10:56;;;;;;;13.95;7.50;;;;;;;;;;5039816;28;20072;-62
2021/07/22 11:13:37;;;;;;;13.68;7.03;;;;;;;;;;5042238;28;20060;-64
2021/07/22 11:16:09;;;;;;;13.67;7.33;;;;;;;;;;5038374;28;20072;-63
2021/07/22 11:18:44;;;;;;;12.13;7.18;;;;;;;;;;5037313;28;20432;-63
2021/07/22 11:21:15;;;;;;;13.63;7.65;;;;;;;;;;5045053;28;20101;-63
2021/07/22 11:23:41;;;;;;;;;;;;;;;;;;5039425;28;20041;-61
2021/07/22 11:26:07;;;;;;;10.40;6.70;;;;;;;;;;5039333;28;19912;-61
2021/07/22 11:28:32;;;;;;;13.13;6.63;;;;;;;;;;5039304;28;20028;-61
2021/07/22 11:30:58;;;;;;;14.45;7.22;;;;;;;;;;5039382;28;20055;-61
2021/07/22 11:33:24;;;;;;;15.77;7.60;;;;;;;;;;5039772;28;20495;-61
2021/07/22 11:35:57;;;;;;;12.60;6.20;;;;;;;;;;5047311;28;20048;-61
2021/07/22 11:38:23;;;;;;;11.38;6.03;;;;;;;;;;5034403;28;20496;-61
2021/07/22 11:40:49;;;;;;;10.85;6.50;;;;;;;;;;5043773;28;20029;-61
2021/07/22 11:43:36;;;;;;;10.65;6.40;;;;;;;;;;5038298;28;20029;-61
2021/07/22 11:46:02;;;;;;;13.35;6.20;;;;;;;;;;5048449;28;20036;-61
2021/07/22 11:48:27;;;;;;;11.15;6.07;;;;;;;;;;5038187;28;20029;-61
2021/07/22 11:51:04;;;;;;;14.45;6.32;;;;;;;;;;5039321;28;20399;-62
2021/07/22 11:53:30;;;;;;;11.50;6.13;;;;;;;;;;5038288;28;20025;-63
2021/07/22 11:56:09;;;;;;;10.38;6.03;;;;;;;;;;5036988;28;20036;-63
2021/07/22 11:58:34;;;;;;;9.32;5.70;;;;;;;;;;5036991;28;20492;-63
2021/07/22 12:01:01;;;;;;;10.38;5.63;;;;;;;;;;5042430;28;20068;-62
2021/07/22 12:03:27;;;;;;;10.13;5.78;;;;;;;;;;5039338;28;20029;-62
2021/07/22 12:05:52;;;;;;;10.13;5.57;;;;;;;;;;5036919;28;20078;-63
2021/07/22 12:08:21;;;;;;;9.25;5.68;;;;;;;;;;5043358;28;20021;-62
2021/07/22 12:10:47;;;;;;;9.35;5.80;;;;;;;;;;5038618;28;20120;-62
2021/07/22 12:13:13;;;;;;;9.70;6.10;;;;;;;;;;5034669;28;20029;-62
2021/07/22 12:15:39;;;;;;;9.65;5.95;;;;;;;;;;5038217;28;20108;-62
2021/07/22 12:18:06;;;;;;;11.27;5.18;;;;;;;;;;5040375;28;20052;-62
2021/07/22 12:20:33;;;;;;;9.38;5.38;;;;;;;;;;5037832;28;20033;-62
2021/07/22 12:23:29;;;;;;;9.73;5.20;;;;;;;;;;5034302;28;20578;-62
2021/07/22 12:26:03;;;;;;;12.15;5.32;;;;;;;;;;5031270;28;20046;-63
2021/07/22 12:28:28;;;;;;;11.25;5.50;;;;;;;;;;5035558;28;20562;-62
2021/07/22 12:30:54;;;;;;;8.57;5.53;;;;;;;;;;5037383;28;20108;-63
2021/07/22 12:33:25;;;;;;;9.85;5.80;;;;;;;;;;5033309;28;20044;-62
2021/07/22 12:35:51;;;;;;;11.57;5.23;;;;;;;;;;5039238;28;20105;-62
2021/07/22 12:38:19;;;;;;;6.15;4.45;;;;;;;;;;5041218;28;20504;-62
2021/07/22 12:40:58;;;;;;;7.90;4.80;;;;;;;;;;5038634;28;20029;-63
2021/07/22 12:43:31;;;;;;;10.18;5.05;;;;;;;;;;5036303;28;20043;-63
2021/07/22 12:46:14;;;;;;;6.68;4.78;;;;;;;;;;5038028;28;20035;-63
2021/07/22 12:48:40;;;;;;;10.02;5.10;;;;;;;;;;5044173;28;20431;-62
2021/07/22 12:51:10;;;;;;;11.40;4.95;;;;;;;;;;5037429;28;20078;-62
2021/07/22 12:53:35;;;;;;;5.50;4.82;;;;;;;;;;5037989;28;20037;-62
2021/07/22 12:56:01;;;;;;;6.18;4.50;;;;;;;;;;5037601;28;20030;-62
2021/07/22 12:58:32;;;;;;;8.45;5.43;;;;;;;;;;5044202;28;20033;-62
2021/07/22 13:01:06;;;;;;;10.65;4.80;;;;;;;;;;5041736;28;20067;-62
2021/07/22 13:03:36;;;;;;;8.43;4.30;;;;;;;;;;5038391;28;20057;-62
2021/07/22 13:06:03;;;;;;;5.35;4.45;;;;;;;;;;5036767;28;20037;-63
2021/07/22 13:08:29;;;;;;;8.88;4.57;;;;;;;;;;5037310;28;20029;-63
2021/07/22 13:10:55;;;;;;;5.97;4.28;;;;;;;;;;5039761;28;20446;-63
2021/07/22 13:13:21;;;;;;;7.18;4.75;;;;;;;;;;5047265;28;20037;-63
2021/07/22 13:15:47;;;;;;;5.13;3.95;;;;;;;;;;5038282;28;20432;-62
2021/07/22 13:18:12;;;;;;;7.95;4.85;;;;;;;;;;5041060;28;20037;-62
2021/07/22 13:20:38;;;;;;;8.80;4.35;;;;;;;;;;5040539;28;20033;-63
2021/07/22 13:23:04;;;;;;;6.28;4.60;;;;;;;;;;5041325;28;20026;-63
2021/07/22 13:25:29;;;;;;;5.43;4.10;;;;;;;;;;5034943;28;20034;-62
2021/07/22 13:27:55;;;;;;;7.05;4.32;;;;;;;;;;5042993;28;20063;-63
2021/07/22 13:30:20;;;;;;;6.63;4.35;;;;;;;;;;5039032;28;20523;-63
2021/07/22 13:32:47;;;;;;;7.82;4.28;;;;;;;;;;5040138;28;20033;-63
2021/07/22 13:35:13;;;;;;;5.50;4.13;;;;;;;;;;5041685;28;20033;-62
2021/07/22 13:37:40;;;;;;;7.97;4.70;;;;;;;;;;5039545;28;20048;-62
2021/07/22 13:40:08;;;;;;;7.85;5.25;;;;;;;;;;5048431;28;20055;-62
2021/07/22 13:42:34;;;;;;;11.60;5.00;;;;;;;;;;5041289;28;20021;-63
2021/07/22 13:45:00;;;;;;;6.70;4.88;;;;;;;;;;5036264;28;20062;-63
2021/07/22 13:47:25;;;;;;;9.13;5.05;;;;;;;;;;5035317;28;20029;-62
2021/07/22 13:49:51;;;;;;;7.97;5.43;;;;;;;;;;5036472;28;20091;-62
2021/07/22 13:52:17;;;;;;;7.00;4.88;;;;;;;;;;5036842;28;20013;-62
2021/07/22 13:54:42;;;;;;;7.38;5.18;;;;;;;;;;5038938;28;20099;-63
2021/07/22 13:57:08;;;;;;;9.35;5.80;;;;;;;;;;5041385;28;20079;-63
2021/07/22 13:59:34;;;;;;;14.05;5.53;;;;;;;;;;5046886;28;20249;-63
2021/07/22 14:02:02;;;;;;;10.18;5.32;;;;;;;;;;5037689;28;20037;-63
2021/07/22 14:04:27;;;;;;;9.73;5.50;;;;;;;;;;5041987;28;20025;-63
2021/07/22 14:06:53;;;;;;;11.25;5.00;;;;;;;;;;5042150;28;20033;-63
2021/07/22 14:09:18;;;;;;;8.05;5.40;;;;;;;;;;5036434;28;20148;-63
2021/07/22 14:11:44;;;;;;;14.07;6.05;;;;;;;;;;5043613;28;20112;-64
2021/07/22 14:14:09;;;;;;;10.70;5.45;;;;;;;;;;5034751;28;20032;-63
2021/07/22 14:16:34;;;;;;;11.15;5.60;;;;;;;;;;5042651;28;20501;-63
2021/07/22 14:19:00;;;;;;;12.05;5.50;;;;;;;;;;5033527;28;20061;-63
2021/07/22 14:21:26;;;;;;;8.70;5.47;;;;;;;;;;5036074;28;20032;-64
2021/07/22 14:23:52;;;;;;;8.45;5.47;;;;;;;;;;5040158;28;20515;-62
2021/07/22 14:26:18;;;;;;;9.38;5.60;;;;;;;;;;5034997;28;20120;-62
2021/07/22 14:28:43;;;;;;;15.02;6.38;;;;;;;;;;5042271;28;20021;-62
2021/07/22 14:31:09;;;;;;;8.43;5.72;;;;;;;;;;5042259;28;20116;-62
2021/07/22 14:33:35;;;;;;;10.02;5.78;;;;;;;;;;5033564;28;20033;-62
2021/07/22 14:36:02;;;;;;;10.45;5.50;;;;;;;;;;5033436;28;20041;-62
2021/07/22 14:38:27;;;;;;;9.43;5.90;;;;;;;;;;5042547;28;20257;-62
2021/07/22 14:40:53;;;;;;;7.90;5.75;;;;;;;;;;5040178;28;20119;-62